Huvudsida
METAR-TAF:

METAR-TAF

Flygplatser :

Red Dog Mine, Alaska, USA

latitud: 68-01-56N, longitud: 162-53-57W, höjd: 295 m

Aktuellt väderrapport

Denna rapport gjordes för 25 minuter sedan, klockan 22:57 UTC
Vind 8 kt från syd/sydväst
Temperatur 14°C
Fuktighet 55%
Tryck 1013 hPa
Sikt: 16.1 km
Få moln på en höjd av 10000 ft

METAR: PADG 172257Z 21008KT 10SM FEW100 14/05 A2992

Tid: 15:22 (23:22 UTC)


TAF: saknas

Aktuella väderrapporter och prognoser från 4000 flygplatser (METAR- och TAF-rapporter).

De tillgängliga stationerna syns som gula och röda prickar på kartan.

För musen över prickarna för att se namnen på stationerna.

Klicka sedan för att få väderrapporter och prognoser.

För att ändra kartan: Klicka på de gröna knapparna med ett svart kors på för att zooma in; den gröna knappen med ett streck på för att zooma ut; eller på de gröna pilarna för angränsande kartor.


METAR-TAF: